createdAt,value
2018-06-30T00:00:58.332Z,10.97
2018-06-30T00:03:32.541Z,9.67
2018-06-30T00:06:01.533Z,10.30
2018-06-30T00:08:30.427Z,9.87
2018-06-30T00:10:59.817Z,11.03
2018-06-30T00:13:28.715Z,14.00
2018-06-30T00:15:57.632Z,12.23
2018-06-30T00:18:26.533Z,13.23
2018-06-30T00:20:55.482Z,11.77
2018-06-30T00:23:24.383Z,12.13
2018-06-30T00:25:53.305Z,13.23
2018-06-30T00:28:22.664Z,10.13
2018-06-30T00:30:51.569Z,11.80
2018-06-30T00:33:20.479Z,11.87
2018-06-30T00:35:49.405Z,11.17
2018-06-30T00:38:18.508Z,16.00
2018-06-30T00:40:47.365Z,14.90
2018-06-30T00:43:16.279Z,14.03
2018-06-30T00:45:45.188Z,12.77
2018-06-30T00:48:14.088Z,14.17
2018-06-30T00:50:43.159Z,11.50
2018-06-30T00:53:12.160Z,12.47
2018-06-30T00:55:41.075Z,13.73
2018-06-30T00:58:10.368Z,15.20
2018-06-30T01:00:40.375Z,13.63
2018-06-30T01:03:09.788Z,12.77
2018-06-30T01:05:38.719Z,12.27
2018-06-30T01:08:07.738Z,13.13
2018-06-30T01:10:36.652Z,13.07
2018-06-30T01:13:05.592Z,12.50
2018-06-30T01:15:35.420Z,15.23
2018-06-30T01:18:04.343Z,13.93
2018-06-30T01:20:33.243Z,14.13
2018-06-30T01:23:02.136Z,14.23
2018-06-30T01:25:31.041Z,20.03
2018-06-30T01:27:59.941Z,12.83
2018-06-30T01:30:28.851Z,11.83
2018-06-30T01:32:57.823Z,17.53
2018-06-30T01:35:26.732Z,15.87
2018-06-30T01:37:56.164Z,13.17
2018-06-30T01:40:25.163Z,16.77
2018-06-30T01:42:54.050Z,19.07
2018-06-30T01:45:22.956Z,15.30
2018-06-30T01:47:51.855Z,13.00
2018-06-30T01:50:20.768Z,15.60
2018-06-30T01:52:50.019Z,13.40
2018-06-30T01:55:18.955Z,19.10
2018-06-30T01:57:47.868Z,18.63
2018-06-30T02:00:16.775Z,13.63
2018-06-30T02:02:45.704Z,17.90
2018-06-30T02:05:14.648Z,17.10
2018-06-30T02:07:43.569Z,19.40
2018-06-30T02:10:12.471Z,19.07
2018-06-30T02:12:41.380Z,15.10
2018-06-30T02:15:10.292Z,18.80
2018-06-30T02:17:39.270Z,13.80
2018-06-30T02:20:08.173Z,15.37
2018-06-30T02:22:37.101Z,18.07
2018-06-30T02:25:06.041Z,20.53
2018-06-30T02:27:34.965Z,17.97
2018-06-30T02:30:04.411Z,20.53
2018-06-30T02:32:33.353Z,18.33
2018-06-30T02:35:02.278Z,18.07
2018-06-30T02:37:31.188Z,18.53
2018-06-30T02:40:00.176Z,14.93
2018-06-30T02:42:30.193Z,16.17
2018-06-30T02:44:59.096Z,17.10
2018-06-30T02:47:28.138Z,16.93
2018-06-30T02:49:57.054Z,19.67
2018-06-30T02:52:26.296Z,20.77
2018-06-30T02:54:55.483Z,19.07
2018-06-30T02:57:24.397Z,17.67
2018-06-30T02:59:53.308Z,19.40
2018-06-30T03:02:22.306Z,20.57
2018-06-30T03:04:51.307Z,20.50
2018-06-30T03:07:20.207Z,22.53
2018-06-30T03:09:49.117Z,21.37
2018-06-30T03:12:17.791Z,19.50
2018-06-30T03:14:46.584Z,24.37
2018-06-30T03:17:15.585Z,20.47
2018-06-30T03:19:44.965Z,19.93
2018-06-30T03:22:13.872Z,18.73
2018-06-30T03:24:42.776Z,20.17
2018-06-30T03:27:11.700Z,21.03
2018-06-30T03:29:40.629Z,18.20
2018-06-30T03:32:09.545Z,19.80
2018-06-30T03:34:38.451Z,19.53
2018-06-30T03:37:07.408Z,20.17
2018-06-30T03:39:36.320Z,22.13
2018-06-30T03:42:05.264Z,22.00
2018-06-30T03:44:34.247Z,19.83
2018-06-30T03:47:03.162Z,19.87
2018-06-30T03:49:32.073Z,20.43
2018-06-30T03:52:00.985Z,18.00
2018-06-30T03:54:29.899Z,22.20
2018-06-30T03:56:59.168Z,20.83
2018-06-30T03:59:28.032Z,21.33
2018-06-30T04:01:56.952Z,24.77
2018-06-30T04:04:25.864Z,20.60
2018-06-30T04:06:55.001Z,21.97
2018-06-30T04:09:24.051Z,20.40
2018-06-30T04:11:52.992Z,23.83
2018-06-30T04:14:21.904Z,24.07
2018-06-30T04:16:50.816Z,20.07
2018-06-30T04:19:19.761Z,22.37
2018-06-30T04:21:48.679Z,23.37
2018-06-30T04:24:17.354Z,23.30
2018-06-30T04:26:46.137Z,20.70
2018-06-30T04:29:15.048Z,21.70
2018-06-30T04:31:43.952Z,19.83
2018-06-30T04:34:12.876Z,25.93
2018-06-30T04:36:41.792Z,22.07
2018-06-30T04:39:10.753Z,22.43
2018-06-30T04:41:39.660Z,22.60
2018-06-30T04:44:08.644Z,21.43
2018-06-30T04:46:37.566Z,20.97
2018-06-30T04:49:06.502Z,23.63
2018-06-30T04:51:35.570Z,21.30
2018-06-30T04:54:04.489Z,26.30
2018-06-30T04:56:33.396Z,25.63
2018-06-30T04:59:02.388Z,32.70
2018-06-30T05:01:31.292Z,23.13
2018-06-30T05:04:00.211Z,21.50
2018-06-30T05:06:29.156Z,24.77
2018-06-30T05:08:58.055Z,26.40
2018-06-30T05:11:26.959Z,25.10
2018-06-30T05:13:55.893Z,24.20
2018-06-30T05:16:24.560Z,21.27
2018-06-30T05:18:53.337Z,24.97
2018-06-30T05:21:22.236Z,22.63
2018-06-30T05:23:51.140Z,22.23
2018-06-30T05:26:20.052Z,25.40
2018-06-30T05:28:48.988Z,25.63
2018-06-30T05:31:17.965Z,25.50
2018-06-30T05:33:47.615Z,18.80
2018-06-30T05:36:16.520Z,21.13
2018-06-30T05:38:45.428Z,22.10
2018-06-30T05:41:14.379Z,20.90
2018-06-30T05:43:43.284Z,22.90
2018-06-30T05:46:12.198Z,24.60
2018-06-30T05:48:41.099Z,18.73
2018-06-30T05:51:10.100Z,21.80
2018-06-30T05:53:39.029Z,18.43
2018-06-30T05:56:07.964Z,20.90
2018-06-30T05:58:36.879Z,19.90
2018-06-30T06:01:06.353Z,18.87
2018-06-30T06:03:35.303Z,16.33
2018-06-30T06:06:04.296Z,18.93
2018-06-30T06:08:33.469Z,21.77
2018-06-30T06:11:02.579Z,20.33
2018-06-30T06:13:31.481Z,18.97
2018-06-30T06:16:00.400Z,17.87
2018-06-30T06:18:29.308Z,17.37
2018-06-30T06:20:58.224Z,22.70
2018-06-30T06:23:27.131Z,18.07
2018-06-30T06:25:56.137Z,15.30
2018-06-30T06:28:25.141Z,15.67
2018-06-30T06:30:54.104Z,17.97
2018-06-30T06:33:23.004Z,15.17
2018-06-30T06:35:51.979Z,19.80
2018-06-30T06:38:20.984Z,18.73
2018-06-30T06:40:49.947Z,17.37
2018-06-30T06:43:18.856Z,19.73
2018-06-30T06:45:47.773Z,21.13
2018-06-30T06:48:16.664Z,17.03
2018-06-30T06:50:45.568Z,16.00
2018-06-30T06:53:14.472Z,16.10
2018-06-30T06:55:43.142Z,16.53
2018-06-30T06:58:12.001Z,16.70
2018-06-30T07:00:40.933Z,15.70
2018-06-30T07:03:09.807Z,15.40
2018-06-30T07:05:38.707Z,15.80
2018-06-30T07:08:07.604Z,14.87
2018-06-30T07:10:36.576Z,17.03
2018-06-30T07:13:05.478Z,14.27
2018-06-30T07:15:34.398Z,13.77
2018-06-30T07:18:03.309Z,14.87
2018-06-30T07:20:32.219Z,18.20
2018-06-30T07:23:01.121Z,18.63
2018-06-30T07:25:30.094Z,14.07
2018-06-30T07:27:58.951Z,18.07
2018-06-30T07:30:27.884Z,13.70
2018-06-30T07:32:56.773Z,16.00
2018-06-30T07:35:25.714Z,13.17
2018-06-30T07:37:54.840Z,13.67
2018-06-30T07:40:23.880Z,12.97
2018-06-30T07:42:52.772Z,18.10
2018-06-30T07:45:21.670Z,13.00
2018-06-30T07:47:51.253Z,13.33
2018-06-30T07:50:20.275Z,15.40
2018-06-30T07:52:49.163Z,11.57
2018-06-30T07:55:18.085Z,14.33
2018-06-30T07:57:46.979Z,14.27
2018-06-30T08:00:16.687Z,13.07
2018-06-30T08:02:45.587Z,11.03
2018-06-30T08:05:14.545Z,12.93
2018-06-30T08:07:43.439Z,16.13
2018-06-30T08:10:12.353Z,14.17
2018-06-30T08:12:41.244Z,12.47
2018-06-30T08:15:10.173Z,14.07
2018-06-30T08:17:39.120Z,13.20
2018-06-30T08:20:08.053Z,12.67
2018-06-30T08:22:36.960Z,16.17
2018-06-30T08:25:05.991Z,12.73
2018-06-30T08:27:34.957Z,12.93
2018-06-30T08:30:04.468Z,12.33
2018-06-30T08:32:33.383Z,12.70
2018-06-30T08:35:02.043Z,10.20
2018-06-30T08:37:30.825Z,13.00
2018-06-30T08:39:59.725Z,10.97
2018-06-30T08:42:28.622Z,10.80
2018-06-30T08:44:57.517Z,13.23
2018-06-30T08:47:26.417Z,9.40
2018-06-30T08:49:55.340Z,9.77
2018-06-30T08:52:24.244Z,9.70
2018-06-30T08:54:53.132Z,10.77
2018-06-30T08:57:22.035Z,11.30
2018-06-30T08:59:50.934Z,11.20
2018-06-30T09:02:19.851Z,11.20
2018-06-30T09:04:48.723Z,10.87
2018-06-30T09:07:17.616Z,10.50
2018-06-30T09:09:46.500Z,8.40
2018-06-30T09:12:15.435Z,9.17
2018-06-30T09:14:44.269Z,5.93
2018-06-30T09:17:13.160Z,9.57
2018-06-30T09:19:42.068Z,8.80
2018-06-30T09:22:10.970Z,6.67
2018-06-30T09:24:39.860Z,8.47
2018-06-30T09:27:09.200Z,8.60
2018-06-30T09:32:42.159Z,9.43
2018-06-30T09:35:11.477Z,7.50
2018-06-30T09:37:40.392Z,4.43
2018-06-30T10:16:55.757Z,6.57
2018-06-30T10:22:28.391Z,8.07
2018-06-30T10:24:57.314Z,5.97
2018-06-30T10:27:26.352Z,8.87
2018-06-30T10:29:59.237Z,6.53
2018-06-30T10:32:32.348Z,5.40
2018-06-30T10:35:03.114Z,6.77
2018-06-30T10:46:54.988Z,5.33
2018-06-30T10:49:23.887Z,6.90
2018-06-30T10:51:54.652Z,5.83
2018-06-30T10:54:25.700Z,4.83
2018-06-30T10:56:56.334Z,4.53
2018-06-30T10:59:25.263Z,10.40
2018-06-30T11:01:54.246Z,7.10
2018-06-30T11:04:23.112Z,5.57
2018-06-30T11:06:52.000Z,5.00
2018-06-30T11:09:20.893Z,4.30
2018-06-30T11:11:50.038Z,6.77
2018-06-30T11:14:20.179Z,4.93
2018-06-30T11:16:49.074Z,8.03
2018-06-30T11:19:18.007Z,7.97
2018-06-30T17:07:28.649Z,2.43
2018-06-30T17:09:57.549Z,3.13
2018-06-30T17:12:26.608Z,7.57
2018-06-30T17:14:55.671Z,3.70
2018-06-30T17:17:24.524Z,5.57
2018-06-30T17:19:53.412Z,4.50
2018-06-30T17:22:22.288Z,2.97
2018-06-30T17:24:51.199Z,3.20
2018-06-30T17:27:20.137Z,5.37
2018-06-30T17:29:49.027Z,5.50
2018-06-30T17:32:17.928Z,6.27
2018-06-30T19:40:45.296Z,3.10
2018-06-30T19:43:14.880Z,2.23
2018-06-30T19:45:44.060Z,4.37
2018-06-30T19:48:13.039Z,2.40
2018-06-30T19:50:42.474Z,4.43
2018-06-30T19:53:11.887Z,3.27
2018-06-30T19:55:41.486Z,4.13
2018-06-30T19:58:11.950Z,3.90
2018-06-30T20:00:43.724Z,3.30
2018-06-30T20:21:33.729Z,3.73
2018-06-30T20:51:33.139Z,4.83
2018-06-30T21:03:13.146Z,6.83
2018-06-30T21:05:42.318Z,7.80
2018-06-30T21:08:11.416Z,4.57
2018-06-30T21:16:42.212Z,5.60
2018-06-30T21:19:24.470Z,6.13
2018-06-30T21:58:34.198Z,4.13
2018-06-30T22:01:08.515Z,4.53
2018-06-30T22:03:37.452Z,5.47
2018-06-30T22:06:06.324Z,4.07
2018-06-30T22:08:35.208Z,3.77
2018-06-30T22:11:04.399Z,7.27
2018-06-30T22:13:33.016Z,5.27
2018-06-30T22:16:01.895Z,2.60
2018-06-30T22:18:30.796Z,3.13
2018-06-30T22:20:59.660Z,3.60
2018-06-30T22:23:28.595Z,3.30
2018-06-30T22:25:57.488Z,4.20
2018-06-30T22:28:26.375Z,3.40
2018-06-30T22:30:55.267Z,4.13
2018-06-30T22:33:24.156Z,5.40
2018-06-30T22:35:53.101Z,1.93
2018-06-30T22:38:21.984Z,5.07
2018-06-30T22:40:50.859Z,4.33
2018-06-30T22:43:19.768Z,2.90
2018-06-30T22:45:48.648Z,6.73
2018-06-30T22:48:18.533Z,3.80
2018-06-30T22:50:47.421Z,3.60
2018-06-30T22:53:16.337Z,3.20
2018-06-30T22:55:45.220Z,4.20
2018-06-30T22:58:14.276Z,3.50
2018-06-30T23:00:43.230Z,3.47
2018-06-30T23:03:12.701Z,3.13
2018-06-30T23:05:42.103Z,3.43
2018-06-30T23:08:10.987Z,5.87
2018-06-30T23:10:39.865Z,3.73
2018-06-30T23:13:08.792Z,5.13
2018-06-30T23:15:37.689Z,5.00
2018-06-30T23:18:06.580Z,2.90
2018-06-30T23:20:35.467Z,4.80
2018-06-30T23:23:08.347Z,3.17
2018-06-30T23:25:37.753Z,2.90
2018-06-30T23:28:06.886Z,3.50
2018-06-30T23:30:35.990Z,5.77
2018-06-30T23:33:04.888Z,3.87
2018-06-30T23:35:34.142Z,3.83
2018-06-30T23:38:03.655Z,5.63
2018-06-30T23:40:32.537Z,2.83
2018-06-30T23:43:01.493Z,5.00
2018-06-30T23:45:30.396Z,4.70
2018-06-30T23:47:59.303Z,5.70
2018-06-30T23:50:28.189Z,4.40
2018-06-30T23:52:57.084Z,3.60
2018-06-30T23:55:25.964Z,2.67
2018-06-30T23:57:54.901Z,4.67
